createdAt,value
2023-03-08T00:02:25.325Z,11.10
2023-03-08T00:04:55.741Z,14.93
2023-03-08T00:07:23.464Z,12.15
2023-03-08T00:09:50.407Z,12.73
2023-03-08T00:12:19.508Z,12.88
2023-03-08T00:14:46.894Z,10.68
2023-03-08T00:17:13.815Z,12.95
2023-03-08T00:19:40.801Z,11.18
2023-03-08T00:22:08.622Z,11.30
2023-03-08T00:24:35.621Z,10.10
2023-03-08T00:27:02.846Z,8.50
2023-03-08T00:29:31.614Z,9.85
2023-03-08T00:31:58.594Z,8.82
2023-03-08T00:34:25.549Z,6.63
2023-03-08T00:36:52.519Z,7.18
2023-03-08T00:39:19.432Z,9.15
2023-03-08T00:41:46.815Z,7.35
2023-03-08T00:44:13.934Z,7.38
2023-03-08T00:46:41.056Z,8.40
2023-03-08T00:49:07.954Z,17.75
2023-03-08T00:51:34.930Z,11.68
2023-03-08T00:54:01.891Z,12.25
2023-03-08T00:56:28.819Z,15.20
2023-03-08T00:58:56.939Z,15.40
2023-03-08T01:01:23.945Z,13.30
2023-03-08T01:03:52.269Z,16.25
2023-03-08T01:06:19.268Z,23.17
2023-03-08T01:08:46.427Z,14.68
2023-03-08T01:11:22.673Z,15.23
2023-03-08T01:13:50.945Z,12.18
2023-03-08T01:16:27.914Z,11.20
2023-03-08T01:18:56.382Z,12.38
2023-03-08T01:21:24.642Z,14.73
2023-03-08T01:23:51.906Z,9.25
2023-03-08T01:26:22.044Z,10.65
2023-03-08T01:28:49.973Z,8.27
2023-03-08T01:31:22.499Z,10.43
2023-03-08T01:36:21.576Z,9.38
2023-03-08T01:38:48.866Z,8.25
2023-03-08T01:41:22.733Z,9.32
2023-03-08T01:43:50.723Z,7.50
2023-03-08T01:46:28.303Z,9.85
2023-03-08T01:49:23.121Z,9.48
2023-03-08T01:52:14.715Z,8.45
2023-03-08T01:54:47.332Z,6.60
2023-03-08T01:57:25.711Z,8.77
2023-03-08T01:59:56.816Z,10.27
2023-03-08T02:02:30.867Z,8.57
2023-03-08T02:04:57.914Z,10.18
2023-03-08T02:07:26.801Z,9.63
2023-03-08T02:09:54.458Z,14.07
2023-03-08T02:12:22.245Z,14.73
2023-03-08T02:14:50.455Z,13.65
2023-03-08T02:17:17.502Z,16.48
2023-03-08T02:19:56.023Z,15.00
2023-03-08T02:22:23.850Z,11.63
2023-03-08T02:24:50.812Z,11.48
2023-03-08T02:27:22.089Z,11.65
2023-03-08T02:29:49.075Z,12.90
2023-03-08T02:32:19.377Z,11.65
2023-03-08T02:34:46.484Z,9.52
2023-03-08T02:37:13.294Z,9.63
2023-03-08T02:39:40.233Z,13.18
2023-03-08T02:42:07.339Z,9.70
2023-03-08T02:44:35.321Z,10.63
2023-03-08T02:47:02.300Z,11.07
2023-03-08T02:49:29.155Z,12.80
2023-03-08T02:51:57.352Z,9.50
2023-03-08T02:54:24.324Z,10.15
2023-03-08T02:56:51.302Z,9.48
2023-03-08T02:59:18.420Z,7.78
2023-03-08T03:01:45.744Z,7.10
2023-03-08T03:04:12.582Z,8.18
2023-03-08T03:06:39.588Z,7.68
2023-03-08T03:09:08.908Z,9.13
2023-03-08T03:11:36.897Z,7.30
2023-03-08T03:14:03.818Z,10.20
2023-03-08T03:16:36.760Z,8.93
2023-03-08T03:19:03.932Z,11.90
2023-03-08T03:21:31.007Z,7.60
2023-03-08T03:23:58.671Z,9.77
2023-03-08T03:26:33.697Z,8.85
2023-03-08T03:29:00.916Z,7.95
2023-03-08T03:31:32.808Z,10.65
2023-03-08T03:33:59.717Z,9.15
2023-03-08T03:36:27.593Z,9.85
2023-03-08T03:38:55.591Z,10.07
2023-03-08T03:41:23.870Z,9.30
2023-03-08T03:43:59.969Z,8.82
2023-03-08T03:46:26.898Z,7.20
2023-03-08T03:48:56.406Z,9.13
2023-03-08T03:51:25.410Z,9.32
2023-03-08T03:54:04.960Z,7.50
2023-03-08T03:56:33.499Z,8.25
2023-03-08T03:59:01.057Z,9.65
2023-03-08T04:01:31.308Z,9.70
2023-03-08T04:04:10.631Z,7.32
2023-03-08T04:06:41.264Z,7.88
2023-03-08T04:09:14.505Z,6.82
2023-03-08T04:11:42.587Z,6.28
2023-03-08T04:14:15.206Z,9.15
2023-03-08T04:16:43.056Z,10.23
2023-03-08T04:19:18.028Z,7.38
2023-03-08T04:21:51.387Z,6.40
2023-03-08T04:24:21.435Z,7.53
2023-03-08T04:26:51.684Z,7.28
2023-03-08T04:29:20.281Z,7.72
2023-03-08T04:31:47.720Z,6.88
2023-03-08T04:34:18.260Z,7.40
2023-03-08T04:36:49.260Z,9.85
2023-03-08T04:39:16.913Z,11.13
2023-03-08T04:41:44.168Z,7.72
2023-03-08T04:44:31.644Z,9.63
2023-03-08T04:46:59.326Z,9.63
2023-03-08T04:49:34.377Z,10.00
2023-03-08T04:52:03.216Z,7.28
2023-03-08T04:54:32.945Z,7.55
2023-03-08T04:57:06.895Z,9.50
2023-03-08T04:59:35.738Z,8.60
2023-03-08T05:02:04.412Z,6.50
2023-03-08T05:04:34.039Z,9.70
2023-03-08T05:07:01.170Z,9.80
2023-03-08T05:09:31.807Z,8.63
2023-03-08T05:11:59.578Z,15.35
2023-03-08T05:14:35.117Z,11.02
2023-03-08T05:17:02.680Z,12.93
2023-03-08T05:19:32.978Z,17.58
2023-03-08T05:22:00.153Z,15.45
2023-03-08T05:24:27.491Z,16.95
2023-03-08T05:26:56.489Z,15.63
2023-03-08T05:29:23.497Z,21.95
2023-03-08T05:31:51.143Z,21.98
2023-03-08T05:34:18.853Z,25.63
2023-03-08T05:36:47.759Z,24.30
2023-03-08T05:39:14.825Z,31.20
2023-03-08T05:41:49.828Z,27.13
2023-03-08T05:44:23.321Z,26.80
2023-03-08T05:46:52.257Z,44.20
2023-03-08T05:49:20.574Z,30.52
2023-03-08T05:51:47.514Z,24.80
2023-03-08T05:54:15.112Z,33.70
2023-03-08T05:56:44.277Z,22.08
2023-03-08T05:59:20.947Z,23.95
2023-03-08T06:01:48.211Z,25.08
2023-03-08T06:04:26.055Z,33.35
2023-03-08T06:06:53.754Z,24.13
2023-03-08T06:09:23.822Z,19.10
2023-03-08T06:11:51.124Z,19.23
2023-03-08T06:14:18.371Z,19.52
2023-03-08T06:16:48.643Z,21.83
2023-03-08T06:19:17.046Z,22.50
2023-03-08T06:21:45.466Z,24.80
2023-03-08T06:24:12.617Z,24.80
2023-03-08T06:26:39.878Z,23.92
2023-03-08T06:29:06.907Z,24.30
2023-03-08T06:31:33.917Z,25.55
2023-03-08T06:34:03.730Z,24.90
2023-03-08T06:36:31.141Z,23.60
2023-03-08T06:39:00.017Z,23.08
2023-03-08T06:41:27.176Z,25.05
2023-03-08T06:43:56.980Z,24.65
2023-03-08T06:46:24.221Z,24.42
2023-03-08T06:48:51.630Z,26.42
2023-03-08T06:51:19.433Z,24.58
2023-03-08T06:53:47.475Z,25.08
2023-03-08T06:56:18.540Z,24.52
2023-03-08T06:58:45.430Z,25.02
2023-03-08T07:01:13.941Z,26.00
2023-03-08T07:03:40.934Z,26.17
2023-03-08T07:06:10.167Z,26.15
2023-03-08T07:08:39.531Z,24.38
2023-03-08T07:11:07.137Z,23.67
2023-03-08T07:13:34.475Z,22.58
2023-03-08T07:16:09.865Z,22.73
2023-03-08T07:18:36.787Z,22.17
2023-03-08T07:21:04.141Z,21.95
2023-03-08T07:23:31.118Z,21.08
2023-03-08T07:40:16.435Z,19.27
2023-03-08T07:42:44.313Z,19.77
2023-03-08T07:45:40.092Z,19.85
2023-03-08T07:48:07.364Z,21.35
2023-03-08T07:50:34.757Z,19.85
2023-03-08T07:53:01.880Z,21.65
2023-03-08T07:55:28.848Z,22.33
2023-03-08T07:57:55.787Z,21.55
2023-03-08T08:00:22.944Z,25.33
2023-03-08T08:02:49.862Z,24.02
2023-03-08T08:05:16.903Z,22.58
2023-03-08T08:07:46.832Z,22.52
2023-03-08T08:10:14.151Z,22.70
2023-03-08T08:12:41.019Z,22.85
2023-03-08T08:15:08.165Z,28.80
2023-03-08T08:17:35.060Z,31.92
2023-03-08T08:20:01.883Z,23.90
2023-03-08T08:22:28.799Z,20.73
2023-03-08T08:24:55.567Z,22.13
2023-03-08T08:27:22.471Z,19.50
2023-03-08T08:29:50.941Z,21.65
2023-03-08T08:32:17.810Z,19.42
2023-03-08T08:34:44.745Z,19.33
2023-03-08T08:37:11.704Z,21.48
2023-03-08T08:39:38.587Z,19.90
2023-03-08T08:42:05.594Z,20.38
2023-03-08T08:44:32.476Z,21.98
2023-03-08T08:46:59.358Z,22.77
2023-03-08T08:49:26.290Z,22.60
2023-03-08T08:51:53.483Z,22.35
2023-03-08T08:54:20.389Z,25.65
2023-03-08T08:56:47.288Z,26.63
2023-03-08T08:59:16.367Z,25.20
2023-03-08T09:01:47.109Z,23.75
2023-03-08T09:04:16.786Z,23.55
2023-03-08T09:06:44.181Z,23.80
2023-03-08T09:09:10.983Z,23.17
2023-03-08T09:11:51.974Z,25.15
2023-03-08T09:14:20.487Z,27.48
2023-03-08T09:16:48.158Z,23.67
2023-03-08T09:19:15.694Z,24.30
2023-03-08T09:21:42.745Z,23.02
2023-03-08T09:24:11.515Z,21.80
2023-03-08T09:26:38.642Z,21.98
2023-03-08T09:29:07.324Z,23.17
2023-03-08T09:31:38.009Z,21.73
2023-03-08T09:34:09.194Z,20.15
2023-03-08T09:36:39.798Z,20.50
2023-03-08T09:39:09.107Z,20.48
2023-03-08T09:41:46.939Z,21.73
2023-03-08T09:44:52.020Z,26.95
2023-03-08T09:47:47.890Z,23.08
2023-03-08T09:50:15.932Z,22.80
2023-03-08T09:52:52.181Z,22.85
2023-03-08T09:55:30.380Z,23.25
2023-03-08T09:58:14.868Z,21.77
2023-03-08T10:00:41.990Z,25.15
2023-03-08T10:03:20.947Z,23.48
2023-03-08T10:05:59.836Z,24.63
2023-03-08T10:08:35.338Z,23.17
2023-03-08T10:11:13.621Z,23.30
2023-03-08T10:13:43.901Z,22.38
2023-03-08T10:16:20.926Z,24.33
2023-03-08T10:18:50.717Z,22.95
2023-03-08T10:21:24.728Z,20.88
2023-03-08T10:24:27.378Z,21.38
2023-03-08T10:27:00.930Z,20.13
2023-03-08T10:29:27.715Z,21.25
2023-03-08T10:31:54.625Z,21.77
2023-03-08T10:34:29.166Z,18.58
2023-03-08T10:37:01.963Z,19.08
2023-03-08T10:39:29.149Z,19.58
2023-03-08T10:41:59.059Z,19.77
2023-03-08T10:44:36.632Z,17.75
2023-03-08T10:47:18.085Z,19.70
2023-03-08T10:49:45.298Z,19.63
2023-03-08T10:52:27.009Z,20.20
2023-03-08T10:55:01.783Z,19.20
2023-03-08T10:57:29.480Z,19.63
2023-03-08T11:00:02.543Z,20.25
2023-03-08T11:02:29.767Z,19.33
2023-03-08T11:04:59.176Z,18.73
2023-03-08T11:07:32.903Z,52.60
2023-03-08T11:12:39.552Z,18.40
2023-03-08T11:15:24.814Z,17.88
2023-03-08T11:18:03.645Z,18.60
2023-03-08T11:20:45.626Z,18.92
2023-03-08T11:23:15.530Z,17.67
2023-03-08T11:26:04.140Z,18.05
2023-03-08T11:29:02.368Z,19.38
2023-03-08T11:31:47.118Z,19.23
2023-03-08T11:34:24.670Z,17.67
2023-03-08T11:36:57.534Z,18.27
2023-03-08T11:39:32.996Z,20.63
2023-03-08T11:41:59.862Z,19.20
2023-03-08T11:44:44.829Z,18.85
2023-03-08T11:47:29.722Z,21.88
2023-03-08T11:50:34.250Z,18.63
2023-03-08T11:53:30.445Z,18.70
2023-03-08T11:56:44.911Z,18.40
2023-03-08T11:59:36.523Z,19.85
2023-03-08T12:02:06.432Z,19.88
2023-03-08T12:04:42.490Z,18.75
2023-03-08T12:07:26.756Z,18.63
2023-03-08T12:10:21.566Z,18.75
2023-03-08T12:12:57.801Z,18.63
2023-03-08T12:15:46.487Z,19.90
2023-03-08T12:18:35.911Z,18.38
2023-03-08T12:21:12.854Z,17.63
2023-03-08T12:23:54.914Z,19.60
2023-03-08T12:26:26.966Z,19.65
2023-03-08T12:28:59.234Z,17.90
2023-03-08T12:31:29.931Z,17.90
2023-03-08T12:34:00.195Z,17.98
2023-03-08T12:36:44.102Z,17.05
2023-03-08T12:39:26.701Z,17.20
2023-03-08T12:42:02.758Z,17.75
2023-03-08T12:44:31.443Z,19.20
2023-03-08T12:47:18.525Z,18.15
2023-03-08T12:49:50.122Z,17.00
2023-03-08T12:52:28.114Z,17.52
2023-03-08T12:55:02.086Z,17.10
2023-03-08T13:00:20.857Z,17.80
2023-03-08T13:02:59.430Z,19.77
2023-03-08T13:05:35.666Z,18.08
2023-03-08T13:08:17.015Z,17.35
2023-03-08T13:10:50.083Z,17.30
2023-03-08T13:13:39.356Z,18.40
2023-03-08T13:16:15.684Z,17.98
2023-03-08T13:18:46.724Z,17.55
2023-03-08T13:21:48.778Z,18.30
2023-03-08T13:24:35.050Z,16.80
2023-03-08T13:27:25.305Z,17.50
2023-03-08T13:29:52.438Z,17.40
2023-03-08T13:32:21.989Z,17.52
2023-03-08T13:35:03.120Z,19.85
2023-03-08T13:37:30.941Z,18.02
2023-03-08T13:40:00.199Z,18.88
2023-03-08T13:42:29.081Z,17.35
2023-03-08T13:45:19.010Z,17.35
2023-03-08T13:47:47.369Z,16.88
2023-03-08T13:50:21.615Z,18.38
2023-03-08T13:52:48.951Z,16.88
2023-03-08T13:55:28.034Z,17.80
2023-03-08T13:57:55.523Z,16.20
2023-03-08T14:00:34.912Z,17.25
2023-03-08T14:03:06.604Z,18.40
2023-03-08T14:05:40.751Z,17.85
2023-03-08T14:08:26.134Z,17.75
2023-03-08T14:11:08.439Z,17.10
2023-03-08T14:13:38.434Z,18.15
2023-03-08T14:16:09.544Z,17.35
2023-03-08T14:18:39.562Z,17.80
2023-03-08T14:21:12.963Z,17.20
2023-03-08T14:23:43.368Z,17.52
2023-03-08T14:26:36.235Z,18.60
2023-03-08T14:29:22.376Z,17.83
2023-03-08T14:32:01.098Z,17.77
2023-03-08T14:34:33.773Z,18.40
2023-03-08T14:37:07.957Z,19.98
2023-03-08T14:42:18.478Z,18.88
2023-03-08T14:45:00.233Z,17.27
2023-03-08T14:47:29.557Z,18.17
2023-03-08T14:50:02.802Z,17.55
2023-03-08T14:52:32.315Z,18.67
2023-03-08T14:54:59.347Z,18.73
2023-03-08T14:57:28.694Z,19.40
2023-03-08T15:00:07.691Z,18.55
2023-03-08T15:02:35.748Z,18.90
2023-03-08T15:05:03.356Z,20.17
2023-03-08T15:07:34.358Z,19.95
2023-03-08T15:10:04.367Z,17.40
2023-03-08T15:12:31.421Z,17.48
2023-03-08T15:14:58.266Z,21.40
2023-03-08T15:17:25.163Z,18.88
2023-03-08T15:19:52.018Z,19.38
2023-03-08T15:22:18.889Z,21.15
2023-03-08T15:24:45.773Z,19.83
2023-03-08T15:27:16.405Z,19.00
2023-03-08T15:29:43.403Z,20.05
2023-03-08T15:32:10.276Z,19.38
2023-03-08T15:34:37.244Z,19.58
2023-03-08T15:37:04.160Z,19.73
2023-03-08T15:39:31.155Z,21.73
2023-03-08T15:41:58.019Z,19.70
2023-03-08T15:44:24.966Z,21.40
2023-03-08T15:46:52.976Z,21.83
2023-03-08T15:49:19.928Z,20.42
2023-03-08T15:51:46.880Z,21.50
2023-03-08T15:54:13.755Z,21.90
2023-03-08T15:56:40.669Z,24.40
2023-03-08T15:59:07.584Z,23.88
2023-03-08T16:01:34.411Z,31.52
2023-03-08T16:04:01.310Z,25.75
2023-03-08T16:06:28.402Z,24.00
2023-03-08T16:08:55.487Z,25.48
2023-03-08T16:11:22.978Z,22.13
2023-03-08T16:13:51.602Z,31.08
2023-03-08T16:16:19.491Z,30.63
2023-03-08T16:18:47.121Z,23.92
2023-03-08T16:21:14.661Z,25.92
2023-03-08T16:23:41.889Z,29.85
2023-03-08T16:26:17.242Z,28.17
2023-03-08T16:28:46.380Z,34.67
2023-03-08T16:31:14.587Z,43.60
2023-03-08T16:33:41.552Z,48.20
2023-03-08T16:36:08.824Z,39.60
2023-03-08T16:38:35.996Z,34.90
2023-03-08T16:41:12.692Z,39.33
2023-03-08T16:43:49.972Z,26.95
2023-03-08T16:46:20.050Z,41.30
2023-03-08T16:48:54.606Z,29.90
2023-03-08T16:51:24.767Z,31.35
2023-03-08T16:53:52.034Z,35.22
2023-03-08T16:56:28.763Z,31.63
2023-03-08T16:58:57.580Z,31.80
2023-03-08T17:01:25.842Z,36.25
2023-03-08T17:03:53.217Z,37.83
2023-03-08T17:06:22.324Z,32.38
2023-03-08T17:08:49.880Z,39.67
2023-03-08T17:11:18.552Z,44.22
2023-03-08T17:13:52.656Z,55.97
2023-03-08T17:16:21.664Z,41.45
2023-03-08T17:18:49.634Z,47.63
2023-03-08T17:21:17.631Z,45.38
2023-03-08T17:23:44.772Z,40.75
2023-03-08T17:26:13.225Z,44.35
2023-03-08T17:28:41.746Z,52.15
2023-03-08T17:31:14.305Z,33.58
2023-03-08T17:33:41.591Z,37.67
2023-03-08T17:36:10.643Z,35.67
2023-03-08T17:38:37.696Z,42.10
2023-03-08T17:41:07.126Z,43.15
2023-03-08T17:43:34.756Z,36.63
2023-03-08T17:46:06.324Z,29.70
2023-03-08T17:48:34.420Z,27.70
2023-03-08T17:51:09.846Z,31.63
2023-03-08T17:53:38.007Z,28.15
2023-03-08T17:56:26.354Z,46.50
2023-03-08T17:58:55.465Z,36.13
2023-03-08T18:01:25.300Z,41.30
2023-03-08T18:03:53.315Z,41.92
2023-03-08T18:06:33.487Z,42.20
2023-03-08T18:09:02.900Z,43.65
2023-03-08T18:11:29.940Z,44.45
2023-03-08T18:13:57.350Z,36.03
2023-03-08T18:16:24.270Z,45.10
2023-03-08T18:18:51.301Z,50.97
2023-03-08T18:21:19.754Z,43.17
2023-03-08T18:23:47.558Z,27.95
2023-03-08T18:26:16.326Z,44.92
2023-03-08T18:28:43.206Z,28.50
2023-03-08T18:31:14.719Z,43.42
2023-03-08T18:33:42.018Z,31.08
2023-03-08T18:36:09.125Z,27.35
2023-03-08T18:38:36.454Z,30.35
2023-03-08T18:41:20.772Z,35.85
2023-03-08T18:43:48.513Z,36.13
2023-03-08T18:46:15.394Z,29.45
2023-03-08T18:48:42.608Z,29.33
2023-03-08T18:51:09.842Z,34.03
2023-03-08T18:53:37.280Z,28.25
2023-03-08T18:56:04.865Z,30.77
2023-03-08T18:58:32.702Z,46.95
2023-03-08T19:01:02.811Z,42.88
2023-03-08T19:03:30.597Z,35.05
2023-03-08T19:06:03.072Z,38.97
2023-03-08T19:08:29.888Z,40.50
2023-03-08T19:10:57.593Z,38.13
2023-03-08T19:13:24.871Z,39.08
2023-03-08T19:15:51.972Z,39.05
2023-03-08T19:18:18.843Z,43.40
2023-03-08T19:20:45.705Z,48.58
2023-03-08T19:23:12.649Z,41.05
2023-03-08T19:41:51.103Z,34.70
2023-03-08T19:44:19.020Z,27.77
2023-03-08T19:46:46.844Z,30.58
2023-03-08T19:49:17.252Z,34.08
2023-03-08T19:51:47.975Z,28.45
2023-03-08T19:54:15.254Z,39.33
2023-03-08T19:56:42.228Z,45.33
2023-03-08T19:59:09.470Z,35.10
2023-03-08T20:01:37.161Z,31.55
2023-03-08T20:04:05.021Z,39.90
2023-03-08T20:06:35.662Z,28.58
2023-03-08T20:09:04.583Z,28.20
2023-03-08T20:11:31.867Z,26.58
2023-03-08T20:13:59.318Z,25.05
2023-03-08T20:16:27.493Z,28.55
2023-03-08T20:18:58.046Z,28.08
2023-03-08T20:21:28.398Z,32.70
2023-03-08T20:23:56.713Z,24.05
2023-03-08T20:26:26.172Z,25.98
2023-03-08T20:28:53.215Z,25.30
2023-03-08T20:31:20.472Z,23.15
2023-03-08T20:33:47.308Z,22.73
2023-03-08T20:36:14.582Z,26.20
2023-03-08T20:38:42.232Z,26.75
2023-03-08T20:41:13.479Z,26.80
2023-03-08T20:43:40.462Z,29.10
2023-03-08T20:46:10.002Z,25.95
2023-03-08T20:48:38.400Z,25.65
2023-03-08T20:51:07.333Z,26.02
2023-03-08T20:53:35.174Z,24.50
2023-03-08T20:56:06.814Z,23.20
2023-03-08T20:58:34.292Z,26.75
2023-03-08T21:01:08.788Z,31.30
2023-03-08T21:03:35.758Z,20.48
2023-03-08T21:06:02.618Z,19.60
2023-03-08T21:08:29.656Z,21.50
2023-03-08T21:10:59.549Z,21.88
2023-03-08T21:13:26.504Z,20.45
2023-03-08T21:16:00.979Z,20.70
2023-03-08T21:18:27.998Z,23.08
2023-03-08T21:20:55.371Z,22.23
2023-03-08T21:23:23.300Z,22.27
2023-03-08T21:25:51.888Z,21.90
2023-03-08T21:28:20.774Z,21.63
2023-03-08T21:30:48.497Z,21.02
2023-03-08T21:33:15.647Z,20.42
2023-03-08T21:35:43.246Z,20.08
2023-03-08T21:38:10.769Z,20.80
2023-03-08T21:40:39.725Z,22.00
2023-03-08T21:43:06.745Z,20.83
2023-03-08T21:45:33.961Z,19.75
2023-03-08T21:48:01.017Z,20.98
2023-03-08T21:50:28.083Z,19.92
2023-03-08T21:52:54.979Z,20.33
2023-03-08T21:55:21.996Z,19.45
2023-03-08T21:57:48.953Z,19.90
2023-03-08T22:00:19.400Z,20.75
2023-03-08T22:02:52.327Z,20.23
2023-03-08T22:05:20.625Z,21.98
2023-03-08T22:07:47.628Z,21.13
2023-03-08T22:10:15.090Z,22.00
2023-03-08T22:12:44.840Z,21.83
2023-03-08T22:15:12.502Z,21.88
2023-03-08T22:17:39.436Z,22.83
2023-03-08T22:20:10.605Z,22.27
2023-03-08T22:22:38.453Z,22.67
2023-03-08T22:25:07.300Z,29.27
2023-03-08T22:27:34.450Z,22.92
2023-03-08T22:30:01.766Z,24.17
2023-03-08T22:32:28.803Z,24.50
2023-03-08T22:34:55.892Z,26.00
2023-03-08T22:37:22.906Z,24.65
2023-03-08T22:39:49.961Z,28.83
2023-03-08T22:42:17.044Z,26.77
2023-03-08T22:44:43.990Z,25.88
2023-03-08T22:47:11.030Z,28.08
2023-03-08T22:49:37.942Z,25.55
2023-03-08T22:52:05.662Z,23.55
2023-03-08T22:54:32.922Z,22.70
2023-03-08T22:57:00.130Z,23.52
2023-03-08T22:59:28.362Z,23.45
2023-03-08T23:01:55.738Z,23.55
2023-03-08T23:04:22.822Z,23.38
2023-03-08T23:06:49.828Z,25.00
2023-03-08T23:09:17.647Z,22.23
2023-03-08T23:11:44.949Z,22.50
2023-03-08T23:14:12.867Z,22.48
2023-03-08T23:16:43.085Z,22.75
2023-03-08T23:19:15.773Z,22.95
2023-03-08T23:21:44.646Z,25.13
2023-03-08T23:24:11.868Z,23.23
2023-03-08T23:26:38.947Z,24.00
2023-03-08T23:29:06.555Z,23.05
2023-03-08T23:31:35.899Z,22.42
2023-03-08T23:34:04.858Z,22.80
2023-03-08T23:36:33.223Z,19.65
2023-03-08T23:39:04.272Z,21.00
2023-03-08T23:41:32.326Z,21.73
2023-03-08T23:44:00.887Z,21.50
2023-03-08T23:46:29.138Z,20.75
2023-03-08T23:48:57.664Z,22.27
2023-03-08T23:51:27.766Z,21.27
2023-03-08T23:53:57.013Z,21.88
2023-03-08T23:56:27.212Z,20.35
2023-03-08T23:58:59.528Z,20.95
